🐻⬇️🏀

C. Dewhurst

C. Dewhurst

Team: Charlotte 49ers
Position: G

Season Averages — 2007-2008

GP MPG PPG RPG APG SPG BPG TO FGA Numbers FG% 3P% FT%
34 17.4 4.4 3.8 1.3 0.6 0.4 1.4 3.4 5.8 35.1% 40.0% 72.5%

Model Outputs

No verified model outputs are published for this player in NCAAM yet.

Career Stats

Season League Team GP MIN PTS REB AST STL BLK TO FGA Numbers FG% 3P% FT% TS% eFG%
2010-2011 NCAAM Charlotte 49ers 11 19.4 1.4 5.2 1.1 0.4 0.8 0.9 0.2 7.7 50.0% 0.0% 0.0% 375.0 50.0
2009-2010 NCAAM Charlotte 49ers 31 15.7 2.8 3.9 1.4 0.6 0.1 1.1 1.8 5.8 40.4% 25.0% 80.9% 55.4 42.1
2008-2009 NCAAM Charlotte 49ers 12 18.8 4.0 3.5 1.9 1.0 0.0 2.2 2.4 5.8 41.4% 0.0% 85.7% 58.1 41.4
2007-2008 NCAAM Charlotte 49ers 34 17.4 4.4 3.8 1.3 0.6 0.4 1.4 3.4 5.8 35.1% 40.0% 72.5% 48.7 36.0

Advanced: Numbers = PTS+REB+AST+STL+BLK-TO-FGA, TS% = True Shooting, eFG% = Effective FG

Game Log

Date Vs/At Opponent Result Score MIN FG 3PT FT REB AST STL BLK TO PTS Numbers RAPM GS
2008-03-19 @ Nebraska Cornhuskers L 48-67 12 0-0 0-0 0-0 2 0 1 1 2 2 4 -
2008-03-14 @ Temple Owls L 45-60 8 0-1 0-0 0-0 0 1 0 0 1 0 -1 -
2008-03-13 @ UMass Minutemen W 69-65 14 1-5 0-0 1-2 4 2 1 0 0 3 5 -
2008-03-12 vs Rhode Island Rams W 75-73 16 0-1 0-0 0-2 1 0 1 0 0 0 1 -
2008-03-08 @ Rhode Island Rams W 74-64 21 0-3 0-0 1-2 5 0 2 1 1 1 5 -
2008-03-06 vs George Washington Co W 77-61 10 2-3 0-0 2-2 2 0 0 2 2 6 5 -
2008-03-02 vs Duquesne Dukes W 89-82 7 0-0 0-0 1-2 1 0 0 0 1 1 1 -
2008-02-27 @ Temple Owls L 61-75 18 2-6 1-1 0-0 1 1 2 0 0 5 3 -
2008-02-23 vs Saint Louis Billiken W 81-64 13 1-2 1-1 0-0 2 1 0 0 2 3 2 -
2008-02-20 @ Richmond Spiders L 76-79 26 1-4 0-0 2-2 3 2 1 0 2 4 4 -
2008-02-17 @ Fordham Rams L 51-53 16 0-1 0-0 0-0 4 0 1 0 2 0 2 -
2008-02-13 vs Xavier Musketeers L 60-62 20 1-3 0-1 4-5 6 2 0 0 3 6 8 -
2008-02-09 @ St. Bonaventure Bonn W 87-83 18 0-0 0-0 1-2 0 1 0 1 0 1 3 -
2008-02-06 @ Dayton Flyers L 64-69 20 4-6 0-0 1-2 3 0 0 0 2 9 4 -
2008-02-02 vs Richmond Spiders L 58-64 24 1-3 0-0 8-8 6 1 1 0 2 10 13 -
2008-01-26 vs Fordham Rams W 74-60 24 3-6 0-0 3-3 8 1 0 1 2 9 11 -
2008-01-23 @ La Salle Explorers W 84-78 16 1-5 0-0 2-3 4 0 1 1 1 4 4 -
2008-01-19 @ UMass Minutemen L 79-86 17 1-3 0-0 0-0 7 0 0 0 4 2 2 -
2008-01-16 vs Saint Joseph's Hawks W 70-66 24 2-5 0-0 0-0 4 0 0 1 0 4 4 -
2008-01-12 vs Temple Owls W 60-58 32 5-11 0-1 1-2 10 4 0 0 1 11 13 -
2008-01-09 @ Clemson Tigers W 82-72 29 4-8 0-0 4-7 7 3 0 1 1 12 14 -
2008-01-05 vs Maryland Terrapins L 72-76 16 2-4 0-0 3-4 6 2 0 1 0 7 12 -
2007-12-30 vs Fairleigh Dickinson W 65-59 13 1-5 0-0 0-0 5 1 1 1 0 2 5 -
2007-12-22 vs Gardner-Webb Runnin' W 83-51 27 2-5 0-0 8-9 11 2 1 1 2 12 20 -
2007-12-18 @ Tulsa Golden Hurrica L 63-75 19 1-2 0-0 0-0 2 3 2 0 1 2 6 -
2007-12-15 @ Hofstra Pride L 68-70 13 0-2 0-1 0-0 0 4 1 0 1 0 2 -
2007-12-08 vs Southern Illinois Sa W 71-56 12 0-1 0-0 2-2 2 1 1 1 3 2 3 -
2007-12-05 vs Davidson Wildcats W 75-68 11 0-0 0-0 2-4 5 2 0 0 1 2 8 -
2007-11-29 vs Wake Forest Demon De W 63-59 9 0-2 0-0 1-2 1 0 0 0 1 1 -1 -
2007-11-19 @ Monmouth Hawks L 56-58 18 1-2 0-0 5-7 1 0 0 0 3 7 3 -
2007-11-17 @ UIC Flames W 64-63 19 1-3 0-0 6-7 5 2 0 0 0 8 12 -
2007-11-16 @ Georgia Tech Yellow L 77-82 20 0-7 0-0 3-6 4 3 1 0 3 3 1 -
2007-11-12 vs Appalachian State Mo W 84-78 15 1-1 0-0 0-0 1 4 2 0 2 2 6 -
2007-11-09 vs High Point Panthers W 61-55 14 2-4 0-0 5-6 6 1 1 1 2 9 12 -